Sunday, November 19, 2017, 8:44 PM EST
Back to Local

KPQI, Presque Isle

Location: Presque Isle, ME, United States Lat: 46.683
Local Time: 8:44 PM EST ( 1:44 GMT) Lon: -68.05
Time Zone: US/Eastern Elev: 534 ft

Show me the last for .
Show Decoded

2017-11-19 19:56 METAR KPQI 200056Z AUTO 27014G22KT 10SM OVC015 01/M02 A2918 RMK AO2 SLP923
                 T00061017 FZRANO =
2017-11-19 18:56 METAR KPQI 192356Z AUTO 26012G21KT 10SM BKN020 OVC027 02/00 A2912 RMK AO2
                 RAB04E56 SLP904 P0000 60018 T00170000 10083 20017 53056 FZRANO =
2017-11-19 18:36 METAR KPQI 192336Z AUTO 25010KT 10SM -RA SCT015 BKN022 OVC027 02/01 A2911 RMK
                 AO2 RAB04 P0000 FZRANO =
2017-11-19 18:26 METAR KPQI 192326Z AUTO 27015G22KT 10SM -RA BKN013 BKN020 OVC027 02/01 A2910 RMK
                 AO2 RAB04 P0000 FZRANO =
2017-11-19 17:56 METAR KPQI 192256Z AUTO 26015G22KT 10SM BKN020 OVC027 03/01 A2907 RMK AO2 SLP886
                 T00330011 =
2017-11-19 16:56 METAR KPQI 192156Z AUTO 27015G22KT 10SM FEW015 BKN021 OVC060 06/04 A2901 RMK AO2
                 RAE27 SLP866 P0000 T00610039 =
2017-11-19 15:56 METAR KPQI 192056Z AUTO 27007KT 10SM -RA SCT004 BKN016 OVC025 07/06 A2896 RMK
                 AO2 SLP849 P0004 60018 T00670061 53009 =
2017-11-19 15:28 METAR KPQI 192028Z AUTO 27015G20KT 5SM -RA BR FEW006 BKN014 OVC022 08/07 A2894
                 RMK AO2 PRESRR P0003 =
2017-11-19 15:17 METAR KPQI 192017Z AUTO 00000KT 10SM -RA BKN016 BKN020 OVC037 08/07 A2891 RMK
                 AO2 P0002 =
2017-11-19 14:56 METAR KPQI 191956Z AUTO 32003KT 5SM RA BR FEW007 BKN039 OVC060 08/07 A2891 RMK
                 AO2 SLP834 P0012 T00780072 =
2017-11-19 14:51 METAR KPQI 191951Z AUTO 00000KT 3SM RA BR FEW007 SCT036 OVC060 08/08 A2892 RMK
                 AO2 P0011 =
2017-11-19 14:43 METAR KPQI 191943Z AUTO 00000KT 3SM RA BR FEW003 BKN006 OVC060 08/07 A2892 RMK
                 AO2 CIG 006V011 P0008 =
2017-11-19 13:56 METAR KPQI 191856Z AUTO 19005KT 10SM -RA OVC004 08/07 A2893 RMK AO2 SLP840 P0002
                 T00780072 =
2017-11-19 12:56 METAR KPQI 191756Z AUTO 17007KT 8SM -RA OVC004 07/07 A2898 RMK AO2 SLP856 P0004
                 60033 T00720067 10072 20028 56054 =
2017-11-19 11:56 METAR KPQI 191656Z AUTO 19007KT 10SM -RA OVC004 07/06 A2903 RMK AO2 SLP871 P0004
                 T00670061 =
2017-11-19 10:56 METAR KPQI 191556Z AUTO 13006KT 10SM -RA OVC004 05/05 A2908 RMK AO2 SLP891 P0001
                 T00500050 =
2017-11-19 10:15 METAR KPQI 191515Z AUTO 17006KT 10SM -RA OVC004 04/04 A2912 RMK AO2 P0000 =
2017-11-19 09:56 METAR KPQI 191456Z AUTO 16006KT 10SM -RA OVC006 04/04 A2914 RMK AO2 SLP910 P0005
                 60024 T00440039 58045 =
2017-11-19 08:56 METAR KPQI 191356Z AUTO 18004KT 10SM -RA OVC006 04/03 A2919 RMK AO2 SLP928 P0006
                 T00390033 =
2017-11-19 07:56 METAR KPQI 191256Z AUTO 15004KT 6SM RA BR OVC006 03/03 A2924 RMK AO2 SLP946
                 P0013 T00330028 =
2017-11-19 07:04 METAR KPQI 191204Z AUTO 14007KT 7SM RA OVC006 03/02 A2927 RMK AO2 P0001 =
2017-11-19 06:56 METAR KPQI 191156Z AUTO 14008KT 7SM RA OVC004 03/02 A2927 RMK AO2 CIG 004V008
                 SLP957 P0004 60007 70007 T00280022 10028 21006 56048 =
2017-11-19 06:17 METAR KPQI 191117Z AUTO 13006KT 6SM -RA BR OVC004 02/02 A2930 RMK AO2 P0001
                 FZRANO =
2017-11-19 05:56 METAR KPQI 191056Z AUTO 13006KT 10SM -RA OVC006 02/02 A2932 RMK AO2 UPB0959E13
                 SLP969 P0002 T00170017 FZRANO =
2017-11-19 04:56 METAR KPQI 190956Z AUTO 13007KT 10SM -RA OVC006 01/01 A2936 RMK AO2 UPE32RAB32
                 SLP986 P0000 T00110006 FZRANO =
2017-11-19 04:18 METAR KPQI 190918Z AUTO 14005KT 10SM UP BKN008 OVC012 01/00 A2941 RMK AO2 CIG
                 006V011 P0000 FZRANO =
2017-11-19 03:56 METAR KPQI 190856Z AUTO 14004KT 10SM UP OVC012 01/M01 A2942 RMK AO2
                 UPE36B54RAB36E44 SLP004 P0000 60001 T00061011 58050 FZRANO =
2017-11-19 03:48 METAR KPQI 190848Z AUTO 00000KT 10SM OVC014 01/M01 A2942 RMK AO2 UPE36RAB36E44
                 P0000 FZRANO =
2017-11-19 03:12 METAR KPQI 190812Z AUTO 00000KT 10SM UP FEW009 OVC018 00/M01 A2944 RMK AO2
                 PRESFR P0000 FZRANO =
2017-11-19 02:56 METAR KPQI 190756Z AUTO 00000KT 10SM UP BKN009 OVC018 00/M01 A2946 RMK AO2
                 PRESFR SLP020 P0001 T00001011 FZRANO =
2017-11-19 02:29 METAR KPQI 190729Z AUTO 14005KT 10SM UP BKN011 OVC020 M01/M02 A2949 RMK AO2
                 P0000 FZRANO =
2017-11-19 01:56 METAR KPQI 190656Z AUTO 15006KT 10SM UP OVC020 M01/M03 A2953 RMK AO2 UPB32
                 SLP042 P0000 T10061028 FZRANO =
2017-11-19 00:56 METAR KPQI 190556Z AUTO 16007KT 10SM BKN024 BKN033 OVC044 M01/M04 A2957 RMK AO2
                 SLP056 T10061044 11006 21028 58034 FZRANO =
2017-11-19 00:10 METAR KPQI 190510Z AUTO VRB05KT 10SM BKN029 OVC044 M01/M04 A2959 RMK AO2 FZRANO
                 =
2017-11-18 23:56 METAR KPQI 190456Z AUTO 12004KT 10SM SCT033 OVC044 M02/M04 A2960 RMK AO2 SLP068
                 T10171044 410061094 FZRANO =
2017-11-18 22:56 METAR KPQI 190356Z AUTO 13005KT 10SM FEW050 BKN090 OVC120 M02/M05 A2964 RMK AO2
                 SLP081 T10221050 FZRANO =
2017-11-18 21:56 METAR KPQI 190256Z AUTO 10004KT 10SM OVC095 M02/M05 A2967 RMK AO2 SLP091
                 T10221050 58027 FZRANO =
2017-11-18 20:56 METAR KPQI 190156Z AUTO 00000KT 10SM BKN080 OVC110 M02/M05 A2970 RMK AO2 SLP100
                 T10221050 FZRANO =

Support USWX by starting your Amazon purchase here.